Hauptseite
METAR-TAF:

METAR-TAF

Flughäfen :

Flughafen Turin

Turin, Italien

Breite: 45-13N, Länge: 007-39E, Höhe: 301 m

Beobachtung

Neuester Wetterbericht von vor 1 Stunde und 41 Minuten, um 00:20 UTC
Wind 3 kt aus Ost
Temperatur 16°C
Luftfeuchtigkeit 94%
Luftdruck 1011 hPa
Sichtweite 10 km oder mehr
keine Wolken unter 1500 m und keine Kumulonimbus oder Gewitterwolken

METAR: LIMF 170020Z 10003KT CAVOK 16/15 Q1011

Zeit: 04:01 (02:01 UTC)

Prognose

Neuester Wetterbericht von vor 3 Stunden und 1 Minuten, um 23:00 UTC
Gültige Prognose vom 17 um 00 UTC bis 17 um 24 UTC
Wind 5 kt aus unterschiedlichen Richtungen
Sichtweite 10 km oder mehr
Aufgelockert bewölkt in der Höhe von 5000 ft
Zeitweise
vom 17 um 05 UTC bis 17 um 08 UTC
Sichtweite: 3000 m
feuchter Dunst

TAF: LIMF 162300Z 1700/1724 VRB05KT 9999 SCT050 TEMPO 1705/1708 3000 BR

Wetterbeobachtungen und Prognosen von mehr als 4000 Flughäfen (METAR und TAF Bericht).

Die verfügbaren Stationen werden durch gelbe und rote Markierungen auf der Karte dargestellt.

Führen Sie die Maus auf sie, um den Namen der Station zu sehen.

Darauf klicken, um die Beobachtung von Wetterbeobachtungen und Prognosen zu sehen.

Um die Karte zu ändern : klicken Sie auf den grünen Tasten mit einem schwarzen Kreuz Zum Vergrößern, auf den grünen Button mit einem Gedankenstrich zu verkleinern, oder auf die grünen Pfeile für benachbarte Karten.


METAR-TAF: